createdAt,value
2023-01-29T00:02:42.206Z,14.63
2023-01-29T00:05:45.284Z,14.38
2023-01-29T00:08:47.658Z,15.18
2023-01-29T00:11:50.074Z,13.85
2023-01-29T00:14:52.409Z,13.52
2023-01-29T00:17:54.736Z,14.13
2023-01-29T00:20:57.053Z,14.45
2023-01-29T00:23:59.915Z,14.20
2023-01-29T00:27:02.236Z,11.52
2023-01-29T00:30:13.139Z,14.65
2023-01-29T00:33:15.548Z,15.00
2023-01-29T00:36:19.762Z,15.18
2023-01-29T00:39:31.430Z,14.73
2023-01-29T00:43:00.356Z,13.73
2023-01-29T00:46:02.736Z,13.00
2023-01-29T00:49:05.971Z,12.82
2023-01-29T00:52:26.572Z,12.00
2023-01-29T00:55:28.881Z,14.35
2023-01-29T00:58:34.340Z,14.43
2023-01-29T01:01:55.429Z,13.60
2023-01-29T01:04:57.950Z,12.05
2023-01-29T01:08:00.402Z,12.93
2023-01-29T01:11:05.700Z,12.32
2023-01-29T01:14:08.024Z,12.27
2023-01-29T01:17:10.557Z,11.40
2023-01-29T01:20:13.967Z,10.63
2023-01-29T01:23:16.413Z,10.75
2023-01-29T01:26:19.459Z,10.93
2023-01-29T01:29:21.888Z,10.30
2023-01-29T01:32:24.333Z,10.90
2023-01-29T01:35:26.628Z,10.98
2023-01-29T01:38:28.947Z,10.98
2023-01-29T01:41:31.395Z,10.55
2023-01-29T01:45:05.158Z,9.52
2023-01-29T01:48:07.434Z,10.23
2023-01-29T01:51:10.151Z,9.70
2023-01-29T01:54:16.429Z,8.43
2023-01-29T01:57:25.154Z,8.50
2023-01-29T02:00:27.985Z,8.70
2023-01-29T02:03:49.673Z,8.40
2023-01-29T02:07:12.041Z,8.50
2023-01-29T02:10:16.970Z,8.07
2023-01-29T02:13:19.744Z,7.78
2023-01-29T02:16:22.865Z,8.23
2023-01-29T02:19:34.603Z,7.25
2023-01-29T02:22:59.302Z,8.30
2023-01-29T02:26:11.034Z,7.60
2023-01-29T02:29:25.211Z,7.03
2023-01-29T02:32:36.200Z,6.75
2023-01-29T02:35:50.481Z,7.00
2023-01-29T02:38:58.738Z,6.57
2023-01-29T02:42:15.467Z,6.93
2023-01-29T02:45:23.654Z,6.80
2023-01-29T02:48:27.306Z,6.15
2023-01-29T02:51:49.838Z,6.63
2023-01-29T02:54:56.312Z,7.25
2023-01-29T02:58:09.392Z,6.57
2023-01-29T03:01:17.442Z,6.20
2023-01-29T03:04:26.954Z,6.55
2023-01-29T03:07:46.576Z,6.50
2023-01-29T03:11:04.760Z,6.32
2023-01-29T03:14:13.441Z,6.80
2023-01-29T03:17:16.853Z,7.72
2023-01-29T03:20:22.092Z,5.78
2023-01-29T03:23:48.681Z,6.82
2023-01-29T03:27:10.278Z,6.38
2023-01-29T03:30:37.430Z,6.43
2023-01-29T03:34:24.287Z,6.93
2023-01-29T03:37:45.797Z,6.85
2023-01-29T03:40:59.021Z,7.03
2023-01-29T03:44:13.946Z,7.03
2023-01-29T03:47:22.440Z,7.90
2023-01-29T03:51:09.316Z,7.38
2023-01-29T03:54:31.176Z,8.10
2023-01-29T03:57:41.893Z,7.65
2023-01-29T04:00:57.384Z,8.27
2023-01-29T04:04:14.586Z,7.70
2023-01-29T04:07:23.853Z,7.95
2023-01-29T04:10:36.235Z,8.15
2023-01-29T04:13:41.154Z,7.78
2023-01-29T04:16:48.329Z,7.27
2023-01-29T04:19:57.213Z,7.93
2023-01-29T04:22:59.528Z,7.63
2023-01-29T04:26:33.757Z,7.15
2023-01-29T04:29:51.475Z,7.82
2023-01-29T04:33:19.884Z,7.82
2023-01-29T04:37:12.895Z,7.80
2023-01-29T04:40:44.555Z,7.65
2023-01-29T04:44:04.491Z,6.93
2023-01-29T04:47:11.107Z,7.90
2023-01-29T04:50:27.198Z,7.45
2023-01-29T04:53:52.697Z,6.90
2023-01-29T04:57:02.721Z,7.43
2023-01-29T05:00:12.648Z,7.53
2023-01-29T05:03:16.209Z,7.15
2023-01-29T05:06:19.345Z,7.50
2023-01-29T05:09:22.236Z,8.05
2023-01-29T05:12:26.527Z,7.43
2023-01-29T05:15:34.967Z,7.28
2023-01-29T05:18:37.390Z,7.88
2023-01-29T05:21:41.187Z,7.20
2023-01-29T05:24:44.704Z,8.07
2023-01-29T05:28:06.478Z,8.15
2023-01-29T05:31:09.446Z,7.50
2023-01-29T05:34:11.788Z,8.05
2023-01-29T05:37:14.138Z,7.85
2023-01-29T05:40:16.707Z,7.43
2023-01-29T05:43:21.622Z,7.53
2023-01-29T05:46:23.949Z,8.07
2023-01-29T05:49:26.335Z,8.77
2023-01-29T05:52:28.603Z,8.77
2023-01-29T05:55:30.960Z,8.40
2023-01-29T05:58:33.975Z,8.38
2023-01-29T06:01:36.497Z,9.10
2023-01-29T06:04:38.881Z,7.75
2023-01-29T06:07:45.350Z,8.88
2023-01-29T06:10:47.771Z,10.00
2023-01-29T06:13:50.183Z,9.38
2023-01-29T06:16:52.485Z,9.07
2023-01-29T06:19:54.810Z,8.65
2023-01-29T06:22:57.048Z,9.57
2023-01-29T06:26:07.767Z,10.65
2023-01-29T06:29:10.086Z,9.23
2023-01-29T06:32:12.521Z,12.15
2023-01-29T06:35:14.970Z,10.68
2023-01-29T06:38:17.268Z,11.88
2023-01-29T06:41:25.287Z,10.57
2023-01-29T06:44:27.780Z,11.40
2023-01-29T06:47:30.107Z,11.68
2023-01-29T06:50:32.382Z,11.60
2023-01-29T06:53:37.840Z,10.93
2023-01-29T06:56:40.115Z,12.15
2023-01-29T06:59:42.709Z,11.80
2023-01-29T07:02:45.069Z,11.85
2023-01-29T07:05:53.740Z,11.90
2023-01-29T07:08:56.714Z,11.55
2023-01-29T07:11:59.028Z,11.88
2023-01-29T07:15:01.348Z,12.60
2023-01-29T07:18:11.980Z,12.32
2023-01-29T07:21:14.315Z,11.50
2023-01-29T07:24:16.857Z,11.70
2023-01-29T07:27:19.173Z,13.55
2023-01-29T07:30:21.543Z,14.20
2023-01-29T07:33:24.014Z,13.55
2023-01-29T07:36:27.309Z,12.60
2023-01-29T07:39:29.697Z,18.17
2023-01-29T07:42:31.944Z,17.38
2023-01-29T07:45:36.647Z,15.32
2023-01-29T07:48:39.035Z,11.68
2023-01-29T07:51:41.361Z,12.38
2023-01-29T07:54:43.769Z,12.77
2023-01-29T07:57:46.238Z,13.52
2023-01-29T08:00:48.646Z,13.52
2023-01-29T08:03:51.516Z,13.90
2023-01-29T08:06:53.930Z,12.90
2023-01-29T08:09:56.265Z,12.57
2023-01-29T08:13:00.323Z,12.48
2023-01-29T08:16:04.347Z,12.00
2023-01-29T08:19:06.681Z,12.20
2023-01-29T08:22:09.009Z,12.55
2023-01-29T08:25:11.577Z,13.73
2023-01-29T08:28:13.978Z,15.02
2023-01-29T08:31:17.210Z,16.08
2023-01-29T08:34:19.618Z,10.75
2023-01-29T08:37:21.955Z,13.10
2023-01-29T08:40:24.294Z,13.75
2023-01-29T08:43:26.640Z,13.02
2023-01-29T08:46:29.008Z,13.65
2023-01-29T08:49:31.383Z,13.93
2023-01-29T08:52:33.749Z,13.43
2023-01-29T08:55:40.913Z,15.20
2023-01-29T08:58:43.502Z,14.35
2023-01-29T09:01:45.801Z,13.70
2023-01-29T09:04:48.084Z,15.27
2023-01-29T09:07:52.109Z,15.85
2023-01-29T09:10:55.723Z,17.27
2023-01-29T09:13:58.081Z,16.65
2023-01-29T09:17:00.369Z,16.52
2023-01-29T09:20:02.857Z,17.80
2023-01-29T09:23:09.871Z,16.08
2023-01-29T09:26:12.259Z,16.65
2023-01-29T09:29:14.678Z,15.93
2023-01-29T09:32:37.771Z,17.40
2023-01-29T09:35:43.846Z,16.65
2023-01-29T09:38:46.169Z,18.02
2023-01-29T09:42:04.650Z,16.30
2023-01-29T09:45:13.600Z,19.05
2023-01-29T09:48:16.159Z,18.30
2023-01-29T09:51:29.427Z,18.58
2023-01-29T09:54:36.200Z,19.03
2023-01-29T09:57:44.702Z,17.35
2023-01-29T10:01:08.841Z,16.95
2023-01-29T10:04:33.277Z,18.25
2023-01-29T10:10:59.582Z,15.70
2023-01-29T10:14:17.883Z,15.88
2023-01-29T10:17:45.128Z,15.77
2023-01-29T10:21:04.608Z,16.52
2023-01-29T10:24:25.633Z,18.27
2023-01-29T10:27:35.683Z,16.58
2023-01-29T10:30:41.052Z,15.23
2023-01-29T10:34:01.372Z,14.52
2023-01-29T10:37:18.719Z,16.48
2023-01-29T10:40:29.143Z,15.38
2023-01-29T10:44:02.844Z,15.18
2023-01-29T10:47:14.285Z,17.57
2023-01-29T10:50:34.503Z,15.18
2023-01-29T10:53:46.091Z,15.15
2023-01-29T10:57:14.460Z,14.38
2023-01-29T11:00:28.136Z,18.52
2023-01-29T11:03:34.461Z,20.10
2023-01-29T11:06:37.448Z,16.27
2023-01-29T11:10:12.019Z,16.57
2023-01-29T11:16:18.232Z,18.48
2023-01-29T11:19:37.658Z,16.40
2023-01-29T11:22:55.817Z,16.70
2023-01-29T11:25:59.317Z,16.50
2023-01-29T11:29:01.647Z,17.33
2023-01-29T11:32:29.080Z,17.15
2023-01-29T11:35:33.324Z,16.70
2023-01-29T11:38:35.643Z,17.20
2023-01-29T11:41:56.657Z,17.35
2023-01-29T11:44:59.681Z,18.85
2023-01-29T11:48:02.317Z,16.83
2023-01-29T11:51:05.699Z,18.15
2023-01-29T11:54:15.941Z,18.33
2023-01-29T11:57:28.689Z,16.95
2023-01-29T12:00:33.626Z,17.08
2023-01-29T12:03:53.954Z,17.67
2023-01-29T12:06:56.351Z,17.55
2023-01-29T12:10:00.230Z,18.25
2023-01-29T12:16:46.861Z,19.73
2023-01-29T12:23:14.533Z,20.08
2023-01-29T12:26:28.411Z,19.30
2023-01-29T12:29:48.763Z,19.40
2023-01-29T12:32:58.945Z,18.83
2023-01-29T12:36:13.531Z,21.02
2023-01-29T12:39:17.795Z,19.85
2023-01-29T12:42:22.733Z,19.38
2023-01-29T12:45:26.324Z,19.38
2023-01-29T12:48:32.697Z,19.90
2023-01-29T12:52:07.262Z,21.52
2023-01-29T12:55:14.739Z,20.75
2023-01-29T12:58:23.245Z,22.48
2023-01-29T13:01:38.367Z,19.25
2023-01-29T13:04:44.375Z,21.30
2023-01-29T13:07:51.255Z,18.48
2023-01-29T13:10:54.958Z,19.50
2023-01-29T13:14:02.093Z,20.67
2023-01-29T13:17:10.848Z,20.33
2023-01-29T13:20:25.829Z,20.88
2023-01-29T13:23:39.673Z,19.38
2023-01-29T13:26:45.648Z,18.13
2023-01-29T13:29:48.014Z,19.70
2023-01-29T13:32:52.524Z,18.25
2023-01-29T13:35:59.856Z,18.63
2023-01-29T13:39:07.856Z,18.77
2023-01-29T13:42:24.847Z,20.90
2023-01-29T13:45:42.996Z,19.90
2023-01-29T13:48:48.006Z,18.13
2023-01-29T13:51:50.401Z,18.08
2023-01-29T13:54:57.464Z,18.05
2023-01-29T13:58:06.800Z,16.65
2023-01-29T14:01:09.188Z,16.95
2023-01-29T14:04:31.179Z,16.45
2023-01-29T14:07:50.121Z,18.50
2023-01-29T14:11:18.322Z,19.35
2023-01-29T14:15:05.657Z,18.08
2023-01-29T14:18:19.526Z,19.25
2023-01-29T14:21:29.866Z,18.70
2023-01-29T14:24:32.311Z,17.70
2023-01-29T14:27:35.612Z,17.38
2023-01-29T14:30:40.089Z,19.13
2023-01-29T14:33:43.496Z,20.55
2023-01-29T14:36:48.212Z,19.90
2023-01-29T14:39:57.802Z,20.20
2023-01-29T14:43:21.051Z,18.80
2023-01-29T14:46:38.071Z,17.75
2023-01-29T14:49:52.523Z,16.08
2023-01-29T14:52:55.736Z,17.75
2023-01-29T14:56:36.627Z,13.60
2023-01-29T14:59:56.497Z,17.67
2023-01-29T15:03:01.993Z,15.90
2023-01-29T15:06:06.905Z,15.85
2023-01-29T15:09:40.773Z,18.35
2023-01-29T15:13:03.462Z,16.13
2023-01-29T15:16:11.709Z,18.88
2023-01-29T15:19:20.468Z,18.10
2023-01-29T15:22:26.089Z,17.00
2023-01-29T15:25:33.916Z,15.63
2023-01-29T15:28:36.651Z,17.67
2023-01-29T15:34:44.006Z,16.25
2023-01-29T15:41:14.642Z,16.70
2023-01-29T15:44:22.457Z,15.95
2023-01-29T15:47:29.079Z,17.08
2023-01-29T15:50:32.306Z,17.25
2023-01-29T15:53:38.156Z,15.27
2023-01-29T15:56:45.433Z,19.08
2023-01-29T15:59:51.825Z,19.15
2023-01-29T16:02:54.388Z,19.05
2023-01-29T16:05:57.157Z,17.45
2023-01-29T16:09:00.003Z,23.50
2023-01-29T16:12:02.600Z,19.08
2023-01-29T16:15:05.608Z,18.75
2023-01-29T16:18:25.392Z,18.38
2023-01-29T16:21:31.526Z,17.25
2023-01-29T16:24:36.111Z,17.83
2023-01-29T16:27:38.511Z,19.38
2023-01-29T16:30:40.874Z,20.60
2023-01-29T16:33:45.468Z,15.32
2023-01-29T16:36:48.348Z,17.40
2023-01-29T16:39:52.882Z,16.88
2023-01-29T16:43:31.329Z,17.65
2023-01-29T16:46:46.818Z,22.95
2023-01-29T16:49:54.996Z,23.05
2023-01-29T16:52:58.378Z,23.17
2023-01-29T16:56:06.811Z,18.75
2023-01-29T16:59:18.572Z,19.50
2023-01-29T17:02:27.706Z,18.60
2023-01-29T17:05:32.444Z,19.70
2023-01-29T17:08:35.155Z,20.58
2023-01-29T17:11:39.615Z,20.40
2023-01-29T17:14:53.413Z,21.67
2023-01-29T17:17:55.777Z,23.73
2023-01-29T17:20:58.206Z,20.10
2023-01-29T17:24:00.572Z,20.23
2023-01-29T17:27:02.997Z,19.35
2023-01-29T17:30:05.626Z,21.75
2023-01-29T17:33:15.910Z,22.05
2023-01-29T17:36:18.649Z,19.85
2023-01-29T17:39:22.998Z,19.90
2023-01-29T17:42:25.386Z,20.20
2023-01-29T17:45:27.856Z,22.05
2023-01-29T17:48:31.261Z,21.20
2023-01-29T17:51:33.505Z,20.40
2023-01-29T17:54:35.832Z,19.25
2023-01-29T17:57:38.076Z,20.75
2023-01-29T18:00:40.450Z,20.13
2023-01-29T18:03:42.883Z,21.65
2023-01-29T18:06:48.147Z,20.55
2023-01-29T18:09:50.458Z,21.88
2023-01-29T18:12:52.756Z,20.90
2023-01-29T18:15:55.095Z,20.73
2023-01-29T18:18:57.428Z,21.38
2023-01-29T18:21:59.804Z,21.70
2023-01-29T18:25:02.127Z,21.63
2023-01-29T18:28:05.145Z,20.63
2023-01-29T18:31:07.719Z,22.80
2023-01-29T18:34:10.017Z,22.15
2023-01-29T18:37:13.146Z,23.20
2023-01-29T18:40:17.458Z,26.90
2023-01-29T18:43:19.839Z,22.65
2023-01-29T18:46:24.356Z,27.50
2023-01-29T18:49:26.868Z,23.33
2023-01-29T18:52:30.632Z,23.85
2023-01-29T18:55:33.737Z,25.55
2023-01-29T18:58:37.240Z,21.70
2023-01-29T19:01:39.610Z,19.40
2023-01-29T19:04:42.395Z,26.77
2023-01-29T19:07:44.938Z,23.88
2023-01-29T19:10:47.333Z,25.40
2023-01-29T19:13:49.914Z,27.38
2023-01-29T19:16:52.308Z,26.95
2023-01-29T19:19:56.556Z,26.52
2023-01-29T19:22:59.637Z,26.80
2023-01-29T19:26:01.986Z,24.58
2023-01-29T19:29:04.703Z,24.42
2023-01-29T19:32:08.890Z,23.98
2023-01-29T19:35:11.372Z,25.55
2023-01-29T19:38:18.841Z,26.05
2023-01-29T19:41:21.174Z,24.27
2023-01-29T19:44:23.531Z,26.20
2023-01-29T19:47:25.891Z,28.10
2023-01-29T19:50:28.344Z,27.27
2023-01-29T19:53:31.709Z,25.52
2023-01-29T19:56:35.114Z,20.70
2023-01-29T19:59:37.396Z,25.38
2023-01-29T20:02:39.646Z,23.30
2023-01-29T20:05:42.070Z,23.20
2023-01-29T20:08:47.562Z,26.85
2023-01-29T20:11:49.895Z,21.90
2023-01-29T20:14:52.328Z,23.70
2023-01-29T20:17:54.723Z,22.67
2023-01-29T20:20:57.108Z,23.50
2023-01-29T20:23:59.552Z,23.58
2023-01-29T20:27:03.097Z,23.70
2023-01-29T20:30:05.897Z,25.95
2023-01-29T20:33:08.294Z,24.67
2023-01-29T20:36:12.846Z,25.92
2023-01-29T20:39:15.188Z,23.38
2023-01-29T20:42:17.642Z,24.42
2023-01-29T20:45:20.046Z,24.55
2023-01-29T20:48:22.391Z,27.60
2023-01-29T20:51:24.721Z,25.50
2023-01-29T20:54:27.195Z,28.17
2023-01-29T20:57:29.707Z,25.25
2023-01-29T21:00:32.452Z,27.00
2023-01-29T21:03:34.792Z,26.50
2023-01-29T21:06:37.043Z,25.70
2023-01-29T21:09:39.406Z,27.02
2023-01-29T21:12:41.812Z,28.15
2023-01-29T21:15:44.436Z,24.75
2023-01-29T21:18:46.690Z,26.05
2023-01-29T21:21:49.007Z,26.08
2023-01-29T21:24:51.580Z,27.17
2023-01-29T21:27:53.915Z,27.13
2023-01-29T21:31:11.384Z,24.83
2023-01-29T21:34:13.684Z,27.88
2023-01-29T21:37:16.017Z,24.23
2023-01-29T21:40:18.820Z,27.30
2023-01-29T21:43:21.240Z,21.17
2023-01-29T21:46:23.549Z,24.95
2023-01-29T21:49:25.936Z,22.15
2023-01-29T21:52:28.207Z,20.90
2023-01-29T21:55:30.630Z,20.10
2023-01-29T21:58:33.063Z,21.42
2023-01-29T22:01:37.951Z,22.42
2023-01-29T22:04:42.366Z,20.23
2023-01-29T22:07:44.847Z,20.45
2023-01-29T22:10:47.315Z,20.98
2023-01-29T22:13:49.805Z,21.25
2023-01-29T22:16:52.139Z,20.48
2023-01-29T22:19:54.514Z,21.23
2023-01-29T22:22:59.447Z,19.85
2023-01-29T22:26:10.032Z,19.75
2023-01-29T22:29:13.243Z,19.08
2023-01-29T22:32:16.323Z,21.25
2023-01-29T22:35:18.698Z,20.77
2023-01-29T22:38:22.738Z,20.92
2023-01-29T22:41:25.094Z,20.35
2023-01-29T22:44:27.389Z,20.10
2023-01-29T22:47:29.660Z,21.42
2023-01-29T22:50:31.992Z,20.70
2023-01-29T22:53:34.403Z,21.50
2023-01-29T22:56:36.736Z,22.17
2023-01-29T22:59:39.411Z,21.85
2023-01-29T23:02:41.715Z,22.50
2023-01-29T23:05:43.985Z,22.98
2023-01-29T23:08:46.285Z,22.15
2023-01-29T23:11:48.761Z,21.42
2023-01-29T23:14:51.076Z,22.48
2023-01-29T23:17:53.356Z,21.83
2023-01-29T23:20:58.471Z,25.05
2023-01-29T23:24:01.488Z,22.67
2023-01-29T23:27:16.076Z,22.93
2023-01-29T23:30:18.827Z,22.52
2023-01-29T23:33:21.608Z,21.95
2023-01-29T23:36:23.895Z,24.02
2023-01-29T23:39:26.236Z,22.55
2023-01-29T23:42:28.568Z,23.92
2023-01-29T23:45:30.831Z,23.38
2023-01-29T23:48:33.123Z,22.52
2023-01-29T23:51:35.452Z,24.10
2023-01-29T23:54:38.094Z,24.05
2023-01-29T23:57:40.399Z,23.13
